Latest Weather Observations for Mandurah

IDW60901

Issued at 6:05 pm WST Wednesday 23 July 2014 (issued every 10 minutes, with the page automatically refreshed every 10 minutes)

About weather observations | Map of Perth area stations | Latest observations for Perth area | Other Formats
Station Details ID: 009977 Name: MANDURAH Lat: -32.52 Lon: 115.71 Height: 3.0 m
Data from the previous 72 hours. | See also: Recent months at Mandurah
Date/Time
WST
Tmp

°C
App
Tmp
°C
Dew
Point
°C
Rel
Hum
%
Delta-T

°C
Wind Press
QNH
hPa
Press
MSL
hPa
Rain
since
9 am
mm
Dir
 
Spd
km/h
Gust
km/h
Spd
kts
Gust
kts
23/06:00pm 14.4 13.0 10.8 79 1.9 W 9 15 5 8 1020.1 1020.1 3.2
23/05:30pm 14.2 12.6 10.2 77 2.1 W 9 15 5 8 1019.8 - 3.2
23/05:00pm 14.4 12.7 11.2 81 1.7 W 11 17 6 9 1020.1 1020.1 3.2
23/04:30pm 14.0 12.9 11.9 87 1.1 W 9 15 5 8 1020.0 - 3.2
23/04:00pm 13.7 13.5 12.9 95 0.4 SW 6 11 3 6 1019.8 1019.8 3.2
23/03:30pm 13.9 13.2 13.3 96 0.3 W 9 15 5 8 1019.9 - 3.2
23/03:00pm 14.6 11.3 9.4 71 2.7 WNW 17 26 9 14 1019.9 1019.9 0.8
23/02:30pm 15.1 11.6 10.3 73 2.5 WNW 19 26 10 14 1019.9 - 0.8
23/02:00pm 14.9 14.8 12.2 84 1.5 W 4 7 2 4 1020.1 1020.1 0.8
23/01:30pm 14.0 13.0 11.0 82 1.6 WNW 7 15 4 8 1020.3 - 0.6
23/01:00pm 14.4 13.1 12.6 89 1.0 N 11 17 6 9 1020.7 1020.7 0.6
23/12:30pm 13.3 10.8 11.2 87 1.1 N 15 20 8 11 1020.8 - 0.4
23/12:00pm 13.7 11.0 10.3 80 1.8 N 15 19 8 10 1021.5 1021.5 0.0
23/11:30am 14.2 11.6 9.2 72 2.5 N 13 15 7 8 1021.9 - 0.0
23/11:00am 13.5 10.4 8.8 73 2.4 N 15 19 8 10 1022.3 1022.3 0.0
23/10:30am 13.2 9.6 8.5 73 2.3 N 17 22 9 12 1022.4 - 0.0
23/10:00am 12.7 9.9 8.6 76 2.0 N 13 17 7 9 1022.7 1022.7 0.0
23/09:30am 13.2 11.5 8.3 72 2.4 NNE 7 11 4 6 1022.9 - 0.0
23/09:00am 11.2 9.6 8.1 81 1.5 ENE 6 7 3 4 1022.4 1022.4 7.6
23/08:30am 10.8 8.4 8.7 87 1.0 NE 11 13 6 7 1022.3 - 7.6
23/08:00am 10.9 9.2 8.5 85 1.2 NE 7 13 4 7 1022.1 1022.1 7.6
23/07:30am 9.8 9.4 8.1 89 0.8 CALM 0 0 0 0 1022.2 - 7.6
23/07:00am 10.1 8.6 8.5 90 0.8 ENE 6 7 3 4 1021.7 1021.7 7.6
23/06:30am 10.1 8.5 8.0 87 1.0 SE 6 7 3 4 1021.5 - 7.6
23/06:00am 10.4 8.6 8.0 85 1.2 SSE 7 11 4 6 1021.2 1021.2 7.6
23/05:30am 10.5 9.4 8.4 87 1.0 SE 4 7 2 4 1021.2 - 7.6
23/05:00am 10.3 8.7 8.7 90 0.8 SSE 7 9 4 5 1021.1 1021.1 7.6
23/04:30am 10.1 8.7 9.0 93 0.5 SE 6 7 3 4 1021.0 - 7.6
23/04:00am 10.0 8.1 9.2 95 0.4 SE 9 13 5 7 1021.2 1021.2 7.6
23/03:30am 10.1 8.8 10.0 99 0.1 SE 7 11 4 6 1021.2 - 7.6
23/03:00am 10.2 8.9 10.1 99 0.1 SE 7 9 4 5 1021.2 1021.2 7.6
23/02:30am 10.1 8.8 10.0 99 0.1 SE 7 9 4 5 1021.4 - 7.6
23/02:00am 9.8 8.4 9.7 99 0.0 SE 7 11 4 6 1021.3 1021.3 7.6
23/01:30am 10.0 8.3 9.9 99 0.1 SE 9 11 5 6 1021.3 - 7.6
23/01:00am 10.5 8.5 10.2 98 0.2 SSE 11 19 6 10 1021.3 1021.3 7.6
23/12:30am 10.7 9.1 10.1 96 0.3 SE 9 13 5 7 1021.3 - 7.6
23/12:00am 11.0 10.1 9.4 90 0.8 S 4 9 2 5 1021.4 1021.4 7.4
 
Date/Time
WST
Tmp

°C
App
Tmp
°C
Dew
Point
°C
Rel
Hum
%
Delta-T

°C
Wind Press
QNH
hPa
Press
MSL
hPa
Rain
since
9 am
mm
Dir
 
Spd
km/h
Gust
km/h
Spd
kts
Gust
kts
22/11:30pm 11.1 9.2 9.2 88 0.9 SE 9 13 5 7 1021.4 - 7.2
22/11:00pm 11.1 9.5 8.7 85 1.2 SE 7 11 4 6 1021.5 1021.5 7.2
22/10:30pm 11.5 9.9 8.7 83 1.4 SE 7 9 4 5 1021.3 - 7.2
22/10:00pm 12.4 10.4 8.7 78 1.8 SE 9 13 5 7 1021.1 1021.1 7.2
22/09:30pm 12.4 10.9 8.5 77 1.9 SSW 6 7 3 4 1021.1 - 7.2
22/09:00pm 12.6 10.5 8.3 75 2.1 S 9 19 5 10 1020.9 1020.9 7.2
22/08:30pm 13.1 10.6 8.4 73 2.3 S 11 17 6 9 1020.8 - 7.2
22/08:00pm 13.1 10.2 8.0 71 2.5 SSW 13 20 7 11 1020.5 1020.5 7.2
22/07:30pm 13.0 9.7 8.1 72 2.4 SSW 15 22 8 12 1020.2 - 7.2
22/07:00pm 12.9 9.9 7.8 71 2.5 SSW 13 19 7 10 1019.8 1019.8 7.2
22/06:30pm 12.6 8.5 8.7 77 1.9 SSW 20 37 11 20 1019.5 - 7.2
22/06:00pm 13.3 10.6 8.8 74 2.3 SSW 13 19 7 10 1019.0 1019.0 7.2
22/05:30pm 13.2 10.1 8.9 75 2.2 SSW 15 22 8 12 1018.7 - 7.2
22/05:00pm 13.6 10.2 9.3 75 2.2 SSW 17 24 9 13 1018.4 1018.4 7.2
22/04:30pm 13.8 11.4 10.0 78 2.0 SSW 13 19 7 10 1018.0 - 7.2
22/04:00pm 13.8 10.7 9.0 73 2.4 SSW 15 22 8 12 1017.7 1017.7 7.2
22/03:30pm 13.4 9.5 9.3 76 2.1 SSW 20 35 11 19 1017.7 - 7.2
22/03:00pm 12.6 9.8 11.3 92 0.7 WSW 17 26 9 14 1017.5 1017.5 7.2
22/02:30pm 11.7 8.2 10.9 95 0.4 SW 20 35 11 19 1017.4 - 7.0
22/02:00pm 12.4 7.7 10.6 89 0.9 WSW 26 41 14 22 1017.2 1017.2 4.6
22/01:30pm 13.7 9.9 9.0 73 2.4 WSW 19 28 10 15 1017.0 - 1.0
22/01:00pm 14.1 10.2 9.5 74 2.4 S 20 33 11 18 1016.8 1016.8 0.8
22/12:30pm 14.7 11.4 9.5 71 2.7 S 17 24 9 13 1016.8 - 0.8
22/12:00pm 13.6 10.8 8.7 72 2.5 S 13 22 7 12 1017.3 1017.3 0.8
22/11:30am 13.6 10.9 9.1 74 2.3 S 13 20 7 11 1017.6 - 0.8
22/11:00am 13.0 10.3 10.2 83 1.4 SSW 15 26 8 14 1017.8 1017.8 0.8
22/10:30am 12.8 11.5 9.8 82 1.5 WSW 7 15 4 8 1017.9 - 0.8
22/10:00am 12.3 11.7 9.0 80 1.6 ESE 2 4 1 2 1017.6 1017.6 0.6
22/09:30am 11.7 11.8 10.3 91 0.7 CALM 0 2 0 1 1017.3 - 0.6
22/09:00am 11.1 10.7 9.9 92 0.6 NE 2 4 1 2 1017.0 1017.0 25.6
22/08:30am 10.8 10.2 10.3 97 0.3 E 4 7 2 4 1016.6 - 25.2
22/08:00am 10.2 9.5 10.1 99 0.1 E 4 7 2 4 1016.2 1016.2 25.0
22/07:30am 10.4 9.4 10.2 99 0.1 NE 6 9 3 5 1015.6 - 24.0
22/07:00am 10.1 9.0 10.0 99 0.1 E 6 7 3 4 1015.2 1015.2 23.8
22/06:30am 10.4 9.7 10.2 99 0.1 SE 4 9 2 5 1015.2 - 23.6
22/06:00am 10.2 9.8 9.9 98 0.2 ESE 2 7 1 4 1014.6 1014.6 23.4
22/05:30am 10.7 9.8 10.5 99 0.1 E 6 9 3 5 1014.4 - 22.6
22/05:00am 10.8 9.7 10.6 99 0.1 ENE 7 13 4 7 1013.8 1013.8 21.4
22/04:30am 10.6 9.6 10.4 99 0.1 ESE 6 9 3 5 1013.5 - 21.2
22/04:00am 10.8 9.7 10.6 99 0.1 SE 7 13 4 7 1012.9 1012.9 19.8
22/03:30am 10.9 9.9 10.9 100 0.0 SE 7 9 4 5 1012.8 - 18.4
22/03:00am 11.0 8.8 10.8 99 0.1 SE 13 19 7 10 1012.6 1012.6 18.4
22/02:30am 11.2 10.4 11.0 99 0.1 SE 6 11 3 6 1012.7 - 17.0
22/02:00am 11.4 10.6 11.2 99 0.1 SE 6 11 3 6 1012.3 1012.3 16.2
22/01:30am 11.3 10.5 11.1 99 0.1 SSE 6 7 3 4 1012.0 - 16.0
22/01:00am 11.2 7.4 11.0 99 0.1 S 22 39 12 21 1011.9 1011.9 16.0
22/12:49am 11.0 5.2 10.8 99 0.1 WSW 32 43 17 23 1012.1 - 15.8
22/12:30am 11.0 10.5 10.8 99 0.1 NE 4 6 2 3 1011.9 - 8.6
22/12:00am 12.1 12.7 11.9 99 0.1 CALM 0 4 0 2 1011.9 1011.9 6.0
 
Date/Time
WST
Tmp

°C
App
Tmp
°C
Dew
Point
°C
Rel
Hum
%
Delta-T

°C
Wind Press
QNH
hPa
Press
MSL
hPa
Rain
since
9 am
mm
Dir
 
Spd
km/h
Gust
km/h
Spd
kts
Gust
kts
21/11:30pm 12.2 11.7 12.0 99 0.1 ENE 6 13 3 7 1011.9 - 6.0
21/11:00pm 12.2 12.4 12.0 99 0.1 S 2 6 1 3 1012.3 1012.3 5.8
21/10:30pm 12.0 11.4 11.8 99 0.1 S 6 9 3 5 1013.0 - 5.6
21/10:00pm 12.7 8.3 10.4 86 1.2 SW 24 39 13 21 1013.1 1013.1 5.2
21/09:30pm 14.8 12.5 10.4 75 2.3 W 13 19 7 10 1012.7 - 4.8
21/09:00pm 14.4 12.9 10.6 78 2.0 W 9 17 5 9 1012.7 1012.7 4.8
21/08:30pm 13.6 11.9 12.3 92 0.7 WSW 13 19 7 10 1012.4 - 4.8
21/08:00pm 13.9 11.9 12.8 93 0.6 WSW 15 22 8 12 1013.1 1013.1 4.8
21/07:30pm 14.7 10.9 11.1 79 1.9 W 22 35 12 19 1013.1 - 2.8
21/07:00pm 13.5 8.7 11.7 89 1.0 W 28 43 15 23 1012.8 1012.8 2.8
21/06:39pm 15.4 9.6 12.7 84 1.5 WNW 35 56 19 30 1012.5 - 2.8
21/06:30pm 16.2 10.9 12.4 78 2.1 WNW 32 41 17 22 1012.0 - 2.8
21/06:00pm 15.9 10.3 13.4 85 1.4 W 35 50 19 27 1012.2 1012.2 2.8
21/05:30pm 17.0 11.0 10.8 67 3.3 NW 33 39 18 21 1011.7 - 2.6
21/05:00pm 16.9 11.0 10.3 65 3.5 NNW 32 39 17 21 1012.0 1012.0 2.6
21/04:30pm 16.8 10.9 10.4 66 3.4 NNW 32 41 17 22 1012.2 - 2.6
21/04:00pm 16.7 11.2 12.0 74 2.6 NW 32 41 17 22 1012.1 1012.1 2.6
21/03:30pm 15.6 12.9 14.6 94 0.6 N 22 32 12 17 1012.4 - 2.6
21/03:00pm 15.0 11.3 14.0 94 0.6 N 26 32 14 17 1012.6 1012.6 2.6
21/02:30pm 14.8 11.8 14.8 100 0.0 N 24 32 13 17 1012.8 - 2.6
21/02:00pm 14.3 10.4 14.3 100 0.0 N 28 33 15 18 1013.3 1013.3 2.6
21/01:30pm 14.8 11.0 14.6 99 0.1 N 28 35 15 19 1013.9 - 2.4
21/01:00pm 16.1 10.9 12.8 81 1.8 NW 32 37 17 20 1014.0 1014.0 1.2
21/12:30pm 15.7 12.5 13.0 84 1.5 N 22 30 12 16 1014.5 - 1.2
21/12:00pm 13.7 8.2 13.5 99 0.1 NW 35 44 19 24 1015.2 1015.2 1.2
21/11:30am 16.3 12.0 12.1 76 2.3 NNW 26 30 14 16 1015.3 - 0.0
21/11:00am 16.0 12.3 11.6 75 2.4 NW 22 28 12 15 1015.6 1015.6 0.0
21/10:30am 15.9 11.8 12.8 82 1.7 NNW 26 32 14 17 1016.0 - 0.0
21/10:00am 14.2 8.7 11.7 85 1.3 NW 32 44 17 24 1016.5 1016.5 0.0
21/09:53am 15.2 10.7 12.5 84 1.5 NW 28 39 15 21 1016.4 - 0.0
21/09:30am 13.8 12.1 12.5 92 0.7 NNE 13 19 7 10 1016.5 - 0.0
21/09:00am 13.9 10.9 12.6 92 0.7 N 20 30 11 16 1016.4 1016.4 2.0
21/08:30am 13.3 12.0 12.4 94 0.5 NE 11 15 6 8 1016.3 - 2.0
21/08:00am 13.3 11.6 11.2 87 1.1 NE 11 17 6 9 1016.2 1016.2 2.0
21/07:30am 14.8 10.9 8.5 66 3.2 NW 19 26 10 14 1016.2 - 2.0
21/07:00am 14.3 11.4 9.5 73 2.5 WNW 15 19 8 10 1016.2 1016.2 2.0
21/06:30am 12.0 11.9 12.0 100 0.0 ESE 4 7 2 4 1016.2 - 2.0
21/06:00am 12.2 12.5 12.2 100 0.0 NE 2 4 1 2 1016.2 1016.2 2.0
21/05:30am 12.2 12.5 12.2 100 0.0 E 2 4 1 2 1016.0 - 2.0
21/05:00am 12.4 12.0 12.4 100 0.0 E 6 9 3 5 1015.9 1015.9 2.0
21/04:30am 12.7 12.8 12.7 100 0.0 SE 4 6 2 3 1016.0 - 2.0
21/04:00am 13.1 12.7 13.1 100 0.0 SSE 7 9 4 5 1015.8 1015.8 1.8
21/03:30am 13.1 12.4 13.1 100 0.0 S 9 13 5 7 1015.7 - 1.8
21/03:00am 13.1 13.3 13.1 100 0.0 S 4 7 2 4 1015.7 1015.7 1.8
21/02:30am 12.7 13.2 12.7 100 0.0 NNE 2 4 1 2 1015.9 - 1.8
21/02:00am 12.7 12.2 12.7 100 0.0 NNE 7 9 4 5 1015.9 1015.9 1.6
21/01:30am 12.7 12.4 12.7 100 0.0 ENE 6 7 3 4 1016.0 - 1.2
21/01:00am 12.7 12.4 12.7 100 0.0 NE 6 9 3 5 1016.2 1016.2 1.0
21/12:30am 12.5 12.1 12.3 99 0.1 NNE 6 6 3 3 1016.3 - 1.0
21/12:00am 12.5 12.0 11.9 96 0.3 ENE 6 7 3 4 1016.4 1016.4 0.6
 
Date/Time
WST
Tmp

°C
App
Tmp
°C
Dew
Point
°C
Rel
Hum
%
Delta-T

°C
Wind Press
QNH
hPa
Press
MSL
hPa
Rain
since
9 am
mm
Dir
 
Spd
km/h
Gust
km/h
Spd
kts
Gust
kts
20/11:30pm 12.5 12.8 10.9 90 0.8 CALM 0 0 0 0 1016.7 - 0.0
20/11:00pm 12.7 12.6 10.9 89 0.9 E 2 6 1 3 1016.8 1016.8 0.0
20/10:30pm 12.7 13.0 10.9 89 0.9 CALM 0 4 0 2 1016.9 - 0.0
20/10:00pm 12.9 12.8 12.0 94 0.5 ENE 4 7 2 4 1016.8 1016.8 0.0
20/09:30pm 12.9 13.6 12.3 96 0.3 CALM 0 0 0 0 1016.7 - 0.0
20/09:00pm 12.5 12.9 11.2 92 0.7 CALM 0 0 0 0 1016.6 1016.6 0.0
20/08:30pm 12.3 12.5 10.5 89 0.9 CALM 0 0 0 0 1016.4 - 0.0
20/08:00pm 12.8 13.0 10.5 86 1.2 CALM 0 0 0 0 1016.2 1016.2 0.0
20/07:30pm 13.2 13.2 9.8 80 1.7 CALM 0 0 0 0 1016.2 - 0.0
20/07:00pm 13.2 12.9 10.2 82 1.5 SW 2 4 1 2 1016.0 1016.0 0.0
20/06:30pm 14.0 13.3 10.0 77 2.1 SW 4 6 2 3 1015.7 - 0.0

Latest Capital City Observations: Canberra | Sydney | Melbourne | Brisbane | Adelaide | Perth | Hobart | Darwin

Other Formats:

Comma delimited format used in spreadsheet applications
http://www.bom.gov.au/fwo/IDW60901/IDW60901.94605.axf

JavaScript Object Notation format (JSON) in row-major order
http://www.bom.gov.au/fwo/IDW60901/IDW60901.94605.json